Mauriti, Brazil
Current Conditions -  °F | °C
As of 5:00 AM on Sunday 26 Oct 2014 (Local Time) from SBJU Reporting Station
Clear Clear  
Wind Chill: 82°   Ceiling: Unl
Heat Index: 84°   Visibility: 6mi
Dew Point: 64°   Wind: 6mph
Humidity: 54%   Direction: 120°ESE
Pressure: 30"   Gusts: NA
Location:  7.39°S, 38.77°W
Report Text: SBJU 260800Z 12005KT CAVOK 28/18 Q1016
Loading
Personal Weather Stations






























Interactive Weather Map
Tropical Storm Tracking
New forecast layout! Learn more

10-Day Weather Forecast

Advertisements
Track Severe Weather on mobile